Time,TemperatureF,DewpointF,PressureIn,WindDirection,WindDirectionDegrees,WindSpeedMPH,WindSpeedGustMPH,Humidity,HourlyPrecipIn,Conditions,Clouds,dailyrainin,SoftwareType,DateUTC
2013-03-22 00:02:00,17.0,10.0,29.96,West,281,1.0,5.0,72,0.00,,,0.00,,2013-03-22 05:02:00,
2013-03-22 00:12:00,17.0,10.0,29.96,West,281,1.0,5.0,72,0.00,,,0.00,,2013-03-22 05:12:00,
2013-03-22 00:22:00,17.0,10.0,29.96,WNW,294,2.0,5.0,72,0.00,,,0.00,,2013-03-22 05:22:00,
2013-03-22 00:32:00,16.0,9.0,29.97,WNW,303,2.0,4.0,72,0.00,,,0.00,,2013-03-22 05:32:00,
2013-03-22 00:42:00,16.0,9.0,29.97,WNW,303,2.0,4.0,72,0.00,,,0.00,,2013-03-22 05:42:00,
2013-03-22 00:52:00,17.0,10.0,29.97,WNW,301,3.0,5.0,72,0.00,,,0.00,,2013-03-22 05:52:00,
2013-03-22 01:02:00,17.0,10.0,29.97,NW,306,3.0,5.0,72,0.00,,,0.00,,2013-03-22 06:02:00,
2013-03-22 01:13:00,17.0,10.0,29.97,NW,306,3.0,5.0,72,0.00,,,0.00,,2013-03-22 06:13:00,
2013-03-22 01:22:00,17.0,9.0,29.97,WNW,301,3.0,7.0,71,0.00,,,0.00,,2013-03-22 06:22:00,
2013-03-22 01:32:00,17.0,10.0,29.97,NW,309,4.0,6.0,72,0.00,,,0.00,,2013-03-22 06:32:00,
2013-03-22 01:42:00,17.0,10.0,29.97,NW,309,4.0,6.0,72,0.00,,,0.00,,2013-03-22 06:42:00,
2013-03-22 01:52:00,16.0,9.0,29.97,NW,319,3.0,6.0,72,0.00,,,0.00,,2013-03-22 06:52:00,
2013-03-22 02:02:00,16.0,9.0,29.97,NW,320,1.0,4.0,73,0.00,,,0.00,,2013-03-22 07:02:00,
2013-03-22 02:12:00,16.0,9.0,29.97,NW,320,1.0,4.0,73,0.00,,,0.00,,2013-03-22 07:12:00,
2013-03-22 02:22:00,15.0,8.0,29.97,NW,320,0.0,2.0,74,0.00,,,0.00,,2013-03-22 07:22:00,
2013-03-22 02:32:00,14.0,8.0,29.98,NW,320,0.0,2.0,75,0.00,,,0.00,,2013-03-22 07:32:00,
2013-03-22 02:42:00,14.0,8.0,29.98,NW,320,0.0,2.0,75,0.00,,,0.00,,2013-03-22 07:42:00,
2013-03-22 02:52:00,14.0,8.0,29.98,NW,320,0.0,0.0,77,0.00,,,0.00,,2013-03-22 07:52:00,
2013-03-22 03:03:00,13.0,7.0,29.97,NW,320,1.0,2.0,77,0.00,,,0.00,,2013-03-22 08:03:00,
2013-03-22 03:12:00,13.0,7.0,29.97,NW,320,1.0,2.0,77,0.00,,,0.00,,2013-03-22 08:12:00,
2013-03-22 03:22:00,14.0,8.0,29.97,NNW,338,4.0,6.0,77,0.00,,,0.00,,2013-03-22 08:22:00,
2013-03-22 03:32:00,13.0,7.0,29.97,NNW,340,2.0,6.0,77,0.00,,,0.00,,2013-03-22 08:32:00,
2013-03-22 03:42:00,13.0,7.0,29.97,NNW,340,2.0,6.0,77,0.00,,,0.00,,2013-03-22 08:42:00,
2013-03-22 03:52:00,11.0,5.0,29.97,NNW,340,0.0,2.0,76,0.00,,,0.00,,2013-03-22 08:52:00,
2013-03-22 04:12:00,11.0,6.0,29.97,NNW,340,0.0,2.0,80,0.00,,,0.00,,2013-03-22 09:12:00,
2013-03-22 04:22:00,11.0,7.0,29.97,NNW,340,0.0,3.0,82,0.00,,,0.00,,2013-03-22 09:22:00,
2013-03-22 04:32:00,12.0,7.0,29.97,NNW,340,2.0,3.0,81,0.00,,,0.00,,2013-03-22 09:32:00,
2013-03-22 04:42:00,12.0,7.0,29.97,NNW,340,2.0,3.0,81,0.00,,,0.00,,2013-03-22 09:42:00,
2013-03-22 04:53:00,12.0,7.0,29.97,NNW,340,0.0,3.0,81,0.00,,,0.00,,2013-03-22 09:53:00,
2013-03-22 05:03:00,11.0,6.0,29.97,NNW,340,0.0,2.0,81,0.00,,,0.00,,2013-03-22 10:03:00,
2013-03-22 05:12:00,11.0,6.0,29.97,NNW,340,0.0,2.0,81,0.00,,,0.00,,2013-03-22 10:12:00,
2013-03-22 05:22:00,10.0,6.0,29.97,NNW,340,0.0,0.0,82,0.00,,,0.00,,2013-03-22 10:22:00,
2013-03-22 05:32:00,10.0,6.0,29.97,NNW,340,0.0,0.0,83,0.00,,,0.00,,2013-03-22 10:32:00,
2013-03-22 05:42:00,10.0,6.0,29.97,NNW,340,0.0,0.0,83,0.00,,,0.00,,2013-03-22 10:42:00,
2013-03-22 05:52:00,10.0,6.0,29.97,NNW,340,0.0,0.0,84,0.00,,,0.00,,2013-03-22 10:52:00,
2013-03-22 06:03:00,11.0,7.0,29.97,NNW,340,2.0,4.0,85,0.00,,,0.00,,2013-03-22 11:03:00,
2013-03-22 06:12:00,11.0,7.0,29.97,NNW,340,2.0,4.0,85,0.00,,,0.00,,2013-03-22 11:12:00,
2013-03-22 06:22:00,12.0,8.0,29.97,NNW,340,2.0,4.0,83,0.00,,,0.00,,2013-03-22 11:22:00,
2013-03-22 06:32:00,12.0,8.0,29.97,NNW,340,1.0,4.0,83,0.00,,,0.00,,2013-03-22 11:32:00,
2013-03-22 06:42:00,12.0,8.0,29.97,NNW,340,1.0,4.0,83,0.00,,,0.00,,2013-03-22 11:42:00,
2013-03-22 06:52:00,11.0,7.0,29.97,NNW,340,0.0,3.0,83,0.00,,,0.00,,2013-03-22 11:52:00,
2013-03-22 07:02:00,11.0,7.0,29.97,NNW,340,0.0,2.0,84,0.00,,,0.00,,2013-03-22 12:02:00,
2013-03-22 07:12:00,11.0,7.0,29.97,NNW,340,0.0,2.0,84,0.00,,,0.00,,2013-03-22 12:12:00,
2013-03-22 07:22:00,11.0,7.0,29.97,NNW,340,1.0,3.0,84,0.00,,,0.00,,2013-03-22 12:22:00,
2013-03-22 07:32:00,11.0,7.0,29.96,NNW,340,0.0,3.0,84,0.00,,,0.00,,2013-03-22 12:32:00,
2013-03-22 07:42:00,11.0,7.0,29.96,NNW,340,0.0,3.0,84,0.00,,,0.00,,2013-03-22 12:42:00,
2013-03-22 07:52:00,10.0,6.0,29.97,NNW,340,0.0,1.0,83,0.00,,,0.00,,2013-03-22 12:52:00,
2013-03-22 08:02:00,11.0,7.0,29.97,NNW,340,0.0,3.0,84,0.00,,,0.00,,2013-03-22 13:02:00,
2013-03-22 08:12:00,11.0,7.0,29.97,NNW,340,0.0,3.0,84,0.00,,,0.00,,2013-03-22 13:12:00,
2013-03-22 08:22:00,11.0,7.0,29.97,NNW,340,1.0,2.0,84,0.00,,,0.00,,2013-03-22 13:22:00,
2013-03-22 08:32:00,13.0,9.0,29.98,NNW,340,2.0,4.0,82,0.00,,,0.00,,2013-03-22 13:32:00,
2013-03-22 08:42:00,13.0,9.0,29.98,NNW,340,2.0,4.0,82,0.00,,,0.00,,2013-03-22 13:42:00,
2013-03-22 08:52:00,14.0,9.0,29.98,NNW,340,3.0,5.0,79,0.00,,,0.00,,2013-03-22 13:52:00,
2013-03-22 09:02:00,15.0,9.0,29.98,NNW,341,2.0,4.0,78,0.00,,,0.00,,2013-03-22 14:02:00,
2013-03-22 09:12:00,15.0,9.0,29.98,NNW,341,2.0,4.0,78,0.00,,,0.00,,2013-03-22 14:12:00,
2013-03-22 09:22:00,16.0,10.0,29.98,NNW,341,2.0,4.0,76,0.00,,,0.00,,2013-03-22 14:22:00,
2013-03-22 09:32:00,18.0,11.0,29.98,NNW,344,2.0,5.0,74,0.00,,,0.00,,2013-03-22 14:32:00,
2013-03-22 09:42:00,18.0,11.0,29.98,NNW,344,2.0,5.0,74,0.00,,,0.00,,2013-03-22 14:42:00,
2013-03-22 09:52:00,19.0,11.0,29.98,NNW,346,3.0,5.0,71,0.00,,,0.00,,2013-03-22 14:52:00,
2013-03-22 10:02:00,20.0,12.0,29.98,NNW,337,2.0,5.0,70,0.00,,,0.00,,2013-03-22 15:02:00,
2013-03-22 10:12:00,20.0,12.0,29.98,NNW,337,2.0,5.0,70,0.00,,,0.00,,2013-03-22 15:12:00,
2013-03-22 10:22:00,22.0,13.0,29.98,North,355,1.0,4.0,68,0.00,,,0.00,,2013-03-22 15:22:00,
2013-03-22 10:32:00,23.0,13.0,29.98,NE,47,3.0,5.0,65,0.00,,,0.00,,2013-03-22 15:32:00,
2013-03-22 10:42:00,23.0,13.0,29.98,NE,47,3.0,5.0,65,0.00,,,0.00,,2013-03-22 15:42:00,
2013-03-22 10:53:00,24.0,14.0,29.98,NE,40,2.0,7.0,66,0.00,,,0.00,,2013-03-22 15:53:00,
2013-03-22 11:02:00,25.0,15.0,29.98,NE,34,1.0,5.0,65,0.00,,,0.00,,2013-03-22 16:02:00,
2013-03-22 11:13:00,25.0,15.0,29.98,NE,52,4.0,6.0,65,0.00,,,0.00,,2013-03-22 16:13:00,
2013-03-22 11:22:00,25.0,15.0,29.98,NE,52,4.0,6.0,65,0.00,,,0.00,,2013-03-22 16:22:00,
2013-03-22 11:32:00,26.0,16.0,29.98,NE,38,2.0,4.0,65,0.00,,,0.00,,2013-03-22 16:32:00,
2013-03-22 11:42:00,26.0,16.0,29.98,NE,38,2.0,4.0,65,0.00,,,0.00,,2013-03-22 16:42:00,
2013-03-22 11:52:00,27.0,16.0,29.98,NE,49,3.0,5.0,64,0.00,,,0.00,,2013-03-22 16:52:00,
2013-03-22 12:03:00,27.0,16.0,29.98,NNE,30,4.0,6.0,64,0.00,,,0.00,,2013-03-22 17:03:00,
2013-03-22 12:12:00,27.0,17.0,29.98,NE,48,4.0,8.0,65,0.00,,,0.00,,2013-03-22 17:12:00,
2013-03-22 12:23:00,27.0,17.0,29.98,NE,48,4.0,8.0,65,0.00,,,0.00,,2013-03-22 17:23:00,
2013-03-22 12:32:00,28.0,17.0,29.97,NE,49,2.0,5.0,64,0.00,,,0.00,,2013-03-22 17:32:00,
2013-03-22 12:42:00,28.0,17.0,29.97,NE,49,2.0,5.0,64,0.00,,,0.00,,2013-03-22 17:42:00,
2013-03-22 12:53:00,29.0,18.0,29.98,WNW,287,1.0,3.0,62,0.00,,,0.00,,2013-03-22 17:53:00,
2013-03-22 13:02:00,29.0,17.0,29.97,WNW,284,2.0,4.0,61,0.00,,,0.00,,2013-03-22 18:02:00,
2013-03-22 13:12:00,29.0,17.0,29.97,WNW,284,2.0,4.0,61,0.00,,,0.00,,2013-03-22 18:12:00,
2013-03-22 13:22:00,30.0,18.0,29.97,North,5,0.0,3.0,60,0.00,,,0.00,,2013-03-22 18:22:00,
2013-03-22 13:33:00,31.0,17.0,29.97,West,280,2.0,3.0,56,0.00,,,0.00,,2013-03-22 18:33:00,
2013-03-22 13:42:00,31.0,17.0,29.97,West,280,2.0,3.0,56,0.00,,,0.00,,2013-03-22 18:42:00,
2013-03-22 13:52:00,32.0,19.0,29.96,ESE,109,0.0,3.0,59,0.00,,,0.00,,2013-03-22 18:52:00,
2013-03-22 14:02:00,32.0,18.0,29.96,NNW,328,3.0,6.0,55,0.01,,,0.01,,2013-03-22 19:02:00,
2013-03-22 14:12:00,32.0,18.0,29.96,NNW,328,3.0,6.0,55,0.01,,,0.01,,2013-03-22 19:12:00,
2013-03-22 14:22:00,31.0,18.0,29.96,North,355,4.0,7.0,57,0.01,,,0.01,,2013-03-22 19:22:00,
2013-03-22 14:32:00,31.0,18.0,29.95,West,277,3.0,7.0,57,0.01,,,0.01,,2013-03-22 19:32:00,
2013-03-22 14:42:00,31.0,18.0,29.95,West,277,3.0,7.0,57,0.01,,,0.01,,2013-03-22 19:42:00,
2013-03-22 14:52:00,32.0,19.0,29.95,WNW,298,3.0,6.0,59,0.01,,,0.01,,2013-03-22 19:52:00,
2013-03-22 15:02:00,32.0,19.0,29.95,NNW,336,3.0,7.0,58,0.00,,,0.01,,2013-03-22 20:02:00,
2013-03-22 15:12:00,32.0,19.0,29.95,NNW,336,3.0,7.0,58,0.00,,,0.01,,2013-03-22 20:12:00,
2013-03-22 15:22:00,32.0,19.0,29.95,WNW,302,2.0,6.0,57,0.00,,,0.01,,2013-03-22 20:22:00,
2013-03-22 15:32:00,33.0,19.0,29.95,NW,318,3.0,6.0,55,0.00,,,0.01,,2013-03-22 20:32:00,
2013-03-22 15:42:00,33.0,19.0,29.95,NW,318,3.0,6.0,55,0.00,,,0.01,,2013-03-22 20:42:00,
2013-03-22 15:52:00,33.0,19.0,29.94,WNW,292,1.0,4.0,56,0.00,,,0.01,,2013-03-22 20:52:00,
2013-03-22 16:03:00,33.0,19.0,29.94,WNW,290,2.0,6.0,56,0.00,,,0.01,,2013-03-22 21:03:00,
2013-03-22 16:12:00,33.0,18.0,29.95,WNW,289,2.0,5.0,54,0.00,,,0.01,,2013-03-22 21:12:00,
2013-03-22 16:22:00,33.0,18.0,29.95,WNW,289,2.0,5.0,54,0.00,,,0.01,,2013-03-22 21:22:00,
2013-03-22 16:32:00,33.0,18.0,29.95,West,281,2.0,4.0,53,0.00,,,0.01,,2013-03-22 21:32:00,
2013-03-22 16:43:00,33.0,18.0,29.95,West,281,2.0,4.0,53,0.00,,,0.01,,2013-03-22 21:43:00,
2013-03-22 16:53:00,34.0,19.0,29.95,West,281,1.0,5.0,53,0.00,,,0.01,,2013-03-22 21:53:00,
2013-03-22 17:03:00,35.0,19.0,29.95,West,281,2.0,4.0,51,0.00,,,0.01,,2013-03-22 22:03:00,
2013-03-22 17:12:00,35.0,19.0,29.95,West,281,2.0,4.0,51,0.00,,,0.01,,2013-03-22 22:12:00,
2013-03-22 17:23:00,35.0,19.0,29.95,WNW,291,1.0,3.0,51,0.00,,,0.01,,2013-03-22 22:23:00,
2013-03-22 17:32:00,36.0,19.0,29.95,WNW,291,0.0,3.0,49,0.00,,,0.01,,2013-03-22 22:32:00,
2013-03-22 17:42:00,36.0,19.0,29.95,WNW,291,0.0,3.0,49,0.00,,,0.01,,2013-03-22 22:42:00,
2013-03-22 17:53:00,36.0,20.0,29.95,WNW,291,2.0,4.0,51,0.00,,,0.01,,2013-03-22 22:53:00,
2013-03-22 18:02:00,35.0,18.0,29.96,WSW,256,1.0,3.0,50,0.00,,,0.01,,2013-03-22 23:02:00,
2013-03-22 18:12:00,35.0,18.0,29.96,WSW,256,1.0,3.0,50,0.00,,,0.01,,2013-03-22 23:12:00,
2013-03-22 18:22:00,35.0,19.0,29.96,SW,221,2.0,5.0,51,0.00,,,0.01,,2013-03-22 23:22:00,
2013-03-22 18:32:00,34.0,18.0,29.96,South,170,0.0,4.0,52,0.00,,,0.01,,2013-03-22 23:32:00,
2013-03-22 18:42:00,34.0,18.0,29.96,South,170,0.0,4.0,52,0.00,,,0.01,,2013-03-22 23:42:00,
2013-03-22 18:52:00,34.0,18.0,29.96,SSW,211,1.0,4.0,51,0.00,,,0.01,,2013-03-22 23:52:00,
2013-03-22 19:02:00,34.0,18.0,29.96,SSW,213,0.0,2.0,52,0.00,,,0.01,,2013-03-23 00:02:00,
2013-03-22 19:12:00,34.0,18.0,29.96,SSW,213,0.0,2.0,52,0.00,,,0.01,,2013-03-23 00:12:00,
2013-03-22 19:23:00,33.0,18.0,29.97,SSW,213,0.0,1.0,54,0.00,,,0.01,,2013-03-23 00:23:00,
2013-03-22 19:32:00,31.0,18.0,29.97,SSW,213,0.0,0.0,57,0.00,,,0.01,,2013-03-23 00:32:00,
2013-03-22 19:42:00,31.0,18.0,29.97,SSW,213,0.0,0.0,57,0.00,,,0.01,,2013-03-23 00:42:00,
2013-03-22 19:52:00,30.0,17.0,29.97,SSW,213,0.0,0.0,58,0.00,,,0.01,,2013-03-23 00:52:00,
2013-03-22 20:03:00,29.0,18.0,29.97,SSW,213,0.0,0.0,62,0.00,,,0.01,,2013-03-23 01:03:00,
2013-03-22 20:12:00,29.0,18.0,29.97,SSW,213,0.0,0.0,62,0.00,,,0.01,,2013-03-23 01:12:00,
2013-03-22 20:22:00,28.0,17.0,29.98,SSW,213,0.0,0.0,64,0.00,,,0.01,,2013-03-23 01:22:00,
2013-03-22 20:42:00,27.0,16.0,29.98,SSW,213,0.0,0.0,64,0.00,,,0.01,,2013-03-23 01:42:00,
2013-03-22 20:52:00,27.0,17.0,29.98,SSW,213,0.0,0.0,65,0.00,,,0.01,,2013-03-23 01:52:00,
2013-03-22 21:02:00,26.0,16.0,29.98,SSW,213,0.0,0.0,66,0.00,,,0.01,,2013-03-23 02:02:00,
2013-03-22 21:12:00,26.0,16.0,29.98,SSW,213,0.0,0.0,66,0.00,,,0.01,,2013-03-23 02:12:00,
2013-03-22 21:22:00,26.0,17.0,29.98,SSW,213,0.0,0.0,68,0.00,,,0.01,,2013-03-23 02:22:00,
2013-03-22 21:32:00,25.0,16.0,29.98,SSW,213,0.0,0.0,69,0.00,,,0.01,,2013-03-23 02:32:00,
2013-03-22 21:42:00,25.0,16.0,29.98,SSW,213,0.0,0.0,69,0.00,,,0.01,,2013-03-23 02:42:00,
2013-03-22 21:52:00,24.0,15.0,29.98,SSW,213,0.0,0.0,69,0.00,,,0.01,,2013-03-23 02:52:00,
2013-03-22 22:02:00,24.0,16.0,29.98,SSW,213,0.0,0.0,70,0.00,,,0.01,,2013-03-23 03:02:00,
2013-03-22 22:12:00,24.0,16.0,29.98,SSW,213,0.0,0.0,70,0.00,,,0.01,,2013-03-23 03:12:00,
2013-03-22 22:22:00,24.0,16.0,29.98,SSW,213,0.0,0.0,71,0.00,,,0.01,,2013-03-23 03:22:00,
2013-03-22 22:33:00,24.0,16.0,29.98,SSW,213,0.0,0.0,71,0.00,,,0.01,,2013-03-23 03:33:00,
2013-03-22 22:43:00,24.0,16.0,29.98,SSW,213,0.0,0.0,71,0.00,,,0.01,,2013-03-23 03:43:00,
2013-03-22 22:53:00,24.0,16.0,29.99,SSW,213,0.0,0.0,71,0.00,,,0.01,,2013-03-23 03:53:00,
2013-03-22 23:02:00,23.0,15.0,29.99,SSW,213,0.0,1.0,71,0.00,,,0.01,,2013-03-23 04:02:00,
2013-03-22 23:12:00,23.0,15.0,29.99,SSW,213,0.0,1.0,71,0.00,,,0.01,,2013-03-23 04:12:00,
2013-03-22 23:23:00,21.0,14.0,29.99,SSW,213,0.0,0.0,73,0.00,,,0.01,,2013-03-23 04:23:00,
2013-03-22 23:32:00,20.0,14.0,30.00,SSW,213,0.0,0.0,78,0.00,,,0.01,,2013-03-23 04:32:00,
2013-03-22 23:43:00,20.0,14.0,30.00,SSW,213,0.0,0.0,78,0.00,,,0.01,,2013-03-23 04:43:00,
2013-03-22 23:53:00,22.0,16.0,30.00,SSW,213,0.0,0.0,78,0.00,,,0.01,,2013-03-23 04:53:00,